createdAt,value
2023-05-20T00:00:02.274Z,40.53
2023-05-20T00:02:31.225Z,40.50
2023-05-20T00:04:59.714Z,41.26
2023-05-20T00:07:28.156Z,40.65
2023-05-20T00:09:56.507Z,40.68
2023-05-20T00:12:24.800Z,41.16
2023-05-20T00:14:55.927Z,40.95
2023-05-20T00:17:26.532Z,41.53
2023-05-20T00:19:54.933Z,41.55
2023-05-20T00:22:23.305Z,43.35
2023-05-20T00:24:51.623Z,43.06
2023-05-20T00:27:19.990Z,42.32
2023-05-20T00:29:48.274Z,42.88
2023-05-20T00:32:17.999Z,42.98
2023-05-20T00:34:46.349Z,43.19
2023-05-20T00:37:14.656Z,44.00
2023-05-20T00:39:42.925Z,43.46
2023-05-20T00:42:11.173Z,42.43
2023-05-20T00:44:39.486Z,41.98
2023-05-20T00:47:07.780Z,41.70
2023-05-20T00:49:37.510Z,42.31
2023-05-20T00:52:06.647Z,43.73
2023-05-20T00:54:35.001Z,42.96
2023-05-20T00:57:03.891Z,43.79
2023-05-20T00:59:32.256Z,45.45
2023-05-20T01:02:00.599Z,43.91
2023-05-20T01:04:29.062Z,44.01
2023-05-20T01:06:58.899Z,43.76
2023-05-20T01:09:27.301Z,43.86
2023-05-20T01:11:57.963Z,43.59
2023-05-20T01:14:28.475Z,43.58
2023-05-20T01:16:58.491Z,42.44
2023-05-20T01:19:29.975Z,42.88
2023-05-20T01:22:00.598Z,43.82
2023-05-20T01:24:30.042Z,44.86
2023-05-20T01:26:58.400Z,43.21
2023-05-20T01:29:26.878Z,44.12
2023-05-20T01:31:56.497Z,43.83
2023-05-20T01:34:25.393Z,44.28
2023-05-20T01:36:54.742Z,43.28
2023-05-20T01:39:23.949Z,43.05
2023-05-20T01:41:54.690Z,42.86
2023-05-20T01:44:23.197Z,43.42
2023-05-20T01:46:51.567Z,43.45
2023-05-20T01:49:19.921Z,43.70
2023-05-20T01:51:48.289Z,43.95
2023-05-20T01:54:16.614Z,43.98
2023-05-20T01:56:45.337Z,44.34
2023-05-20T01:59:15.074Z,45.00
2023-05-20T02:01:43.669Z,46.60
2023-05-20T02:04:12.002Z,45.36
2023-05-20T02:06:40.288Z,47.66
2023-05-20T02:09:08.876Z,46.43
2023-05-20T02:11:37.161Z,47.39
2023-05-20T02:14:05.545Z,45.49
2023-05-20T02:16:35.259Z,45.99
2023-05-20T02:19:03.726Z,46.06
2023-05-20T02:21:32.285Z,45.28
2023-05-20T02:24:00.521Z,46.87
2023-05-20T02:26:28.886Z,47.27
2023-05-20T02:28:57.342Z,46.96
2023-05-20T02:31:25.959Z,48.73
2023-05-20T02:33:55.856Z,52.94
2023-05-20T02:36:24.163Z,50.13
2023-05-20T02:38:54.704Z,52.54
2023-05-20T02:41:22.803Z,50.57
2023-05-20T02:43:51.024Z,50.14
2023-05-20T02:46:19.991Z,49.30
2023-05-20T02:48:48.271Z,50.43
2023-05-20T02:51:18.361Z,50.38
2023-05-20T02:53:47.461Z,49.57
2023-05-20T02:56:16.302Z,52.07
2023-05-20T02:58:44.660Z,52.31
2023-05-20T03:01:13.017Z,51.73
2023-05-20T03:03:41.707Z,50.69
2023-05-20T03:06:10.202Z,51.04
2023-05-20T03:08:40.249Z,50.16
2023-05-20T03:11:08.504Z,51.90
2023-05-20T03:13:36.821Z,49.18
2023-05-20T03:16:05.656Z,48.49
2023-05-20T03:18:34.341Z,48.84
2023-05-20T03:21:02.685Z,49.03
2023-05-20T03:23:30.960Z,50.83
2023-05-20T03:26:00.605Z,48.91
2023-05-20T03:28:28.917Z,48.12
2023-05-20T03:30:57.240Z,48.07
2023-05-20T03:33:26.403Z,46.89
2023-05-20T03:35:54.770Z,46.23
2023-05-20T03:38:23.241Z,47.79
2023-05-20T03:40:51.510Z,46.33
2023-05-20T03:43:21.259Z,46.56
2023-05-20T03:45:49.559Z,45.73
2023-05-20T03:48:17.869Z,44.53
2023-05-20T03:50:46.143Z,44.68
2023-05-20T03:53:14.454Z,44.40
2023-05-20T03:55:43.626Z,43.13
2023-05-20T03:58:13.482Z,44.18
2023-05-20T04:00:43.263Z,42.37
2023-05-20T04:03:11.672Z,41.23
2023-05-20T04:05:40.140Z,41.14
2023-05-20T04:08:10.040Z,41.31
2023-05-20T04:10:38.299Z,41.56
2023-05-20T04:13:06.656Z,41.53
2023-05-20T04:15:36.951Z,40.27
2023-05-20T04:18:08.194Z,38.47
2023-05-20T04:20:37.075Z,37.12
2023-05-20T04:23:05.436Z,37.10
2023-05-20T04:25:34.738Z,35.70
2023-05-20T04:28:03.029Z,35.41
2023-05-20T04:30:33.573Z,36.86
2023-05-20T04:33:03.617Z,35.81
2023-05-20T04:35:35.226Z,35.19
2023-05-20T04:38:03.767Z,38.12
2023-05-20T04:40:32.507Z,37.75
2023-05-20T04:43:01.324Z,39.42
2023-05-20T04:45:29.610Z,37.53
2023-05-20T04:47:58.125Z,36.21
2023-05-20T04:50:26.559Z,35.93
2023-05-20T04:52:56.182Z,35.79
2023-05-20T04:55:25.913Z,36.60
2023-05-20T04:57:54.197Z,37.80
2023-05-20T05:00:23.636Z,40.12
2023-05-20T05:02:52.004Z,40.82
2023-05-20T05:05:20.369Z,40.80
2023-05-20T05:07:49.142Z,42.27
2023-05-20T05:10:18.979Z,40.04
2023-05-20T05:12:48.472Z,41.01
2023-05-20T05:15:16.957Z,41.57
2023-05-20T05:17:45.271Z,42.21
2023-05-20T05:20:13.582Z,41.45
2023-05-20T05:22:41.910Z,41.37
2023-05-20T05:25:11.364Z,42.00
2023-05-20T05:27:41.240Z,40.32
2023-05-20T05:30:10.700Z,40.13
2023-05-20T05:32:39.144Z,38.88
2023-05-20T05:35:08.450Z,39.39
2023-05-20T05:37:37.006Z,38.40
2023-05-20T05:40:06.071Z,37.35
2023-05-20T05:42:34.400Z,42.18
2023-05-20T05:45:04.872Z,41.74
2023-05-20T05:47:33.229Z,39.62
2023-05-20T05:50:01.664Z,39.37
2023-05-20T05:52:29.997Z,38.80
2023-05-20T05:54:58.344Z,40.50
2023-05-20T05:57:26.699Z,39.90
2023-05-20T05:59:55.036Z,41.65
2023-05-20T06:02:24.904Z,41.68
2023-05-20T06:04:53.284Z,42.40
2023-05-20T06:07:21.627Z,43.28
2023-05-20T06:09:49.987Z,42.09
2023-05-20T06:12:18.306Z,42.22
2023-05-20T06:14:46.604Z,42.61
2023-05-20T06:17:14.960Z,44.29
2023-05-20T06:19:44.732Z,43.28
2023-05-20T06:22:13.022Z,43.14
2023-05-20T06:24:41.293Z,41.42
2023-05-20T06:27:09.641Z,41.74
2023-05-20T06:29:38.001Z,41.83
2023-05-20T06:32:07.080Z,41.87
2023-05-20T06:34:35.429Z,40.73
2023-05-20T06:37:05.348Z,42.30
2023-05-20T06:39:33.673Z,41.56
2023-05-20T06:42:01.958Z,43.55
2023-05-20T06:44:30.517Z,39.65
2023-05-20T06:46:58.862Z,39.41
2023-05-20T06:49:27.738Z,40.25
2023-05-20T06:51:56.072Z,41.28
2023-05-20T06:54:25.703Z,40.10
2023-05-20T06:56:54.005Z,40.22
2023-05-20T06:59:22.384Z,39.90
2023-05-20T07:01:50.657Z,39.29
2023-05-20T07:04:18.993Z,43.93
2023-05-20T07:06:47.246Z,42.76
2023-05-20T07:09:15.522Z,41.49
2023-05-20T07:11:45.277Z,39.53
2023-05-20T07:14:13.625Z,40.29
2023-05-20T07:16:41.925Z,40.08
2023-05-20T07:19:10.791Z,41.39
2023-05-20T07:21:39.144Z,42.24
2023-05-20T07:24:07.854Z,42.05
2023-05-20T07:26:36.650Z,40.98
2023-05-20T07:29:06.590Z,40.16
2023-05-20T07:31:34.952Z,39.70
2023-05-20T07:34:03.382Z,40.07
2023-05-20T07:36:31.805Z,41.84
2023-05-20T07:39:04.240Z,40.73
2023-05-20T07:41:33.430Z,38.89
2023-05-20T07:44:03.380Z,40.90
2023-05-20T07:46:33.199Z,40.90
2023-05-20T07:49:01.683Z,42.19
2023-05-20T07:51:29.964Z,38.62
2023-05-20T07:53:58.337Z,37.10
2023-05-20T07:56:26.703Z,38.69
2023-05-20T07:58:59.691Z,39.35
2023-05-20T08:01:28.473Z,40.12
2023-05-20T08:03:58.267Z,39.29
2023-05-20T08:06:29.361Z,39.08
2023-05-20T08:08:58.135Z,37.70
2023-05-20T08:11:26.485Z,39.12
2023-05-20T08:13:54.943Z,39.81
2023-05-20T08:16:23.458Z,38.33
2023-05-20T08:18:51.845Z,38.78
2023-05-20T08:21:21.741Z,37.11
2023-05-20T08:23:50.531Z,36.39
2023-05-20T08:26:18.804Z,36.18
2023-05-20T08:28:47.295Z,35.97
2023-05-20T08:31:15.825Z,37.43
2023-05-20T08:33:44.112Z,35.71
2023-05-20T08:36:12.406Z,37.67
2023-05-20T08:38:42.119Z,36.33
2023-05-20T08:41:10.464Z,36.12
2023-05-20T08:43:38.871Z,35.24
2023-05-20T08:46:07.542Z,35.96
2023-05-20T08:48:36.989Z,36.24
2023-05-20T08:51:05.686Z,37.52
2023-05-20T08:53:34.024Z,36.36
2023-05-20T08:56:04.157Z,36.31
2023-05-20T08:58:32.822Z,36.09
2023-05-20T09:01:01.302Z,35.55
2023-05-20T09:03:29.644Z,35.25
2023-05-20T09:06:05.348Z,35.01
2023-05-20T09:08:34.351Z,35.49
2023-05-20T09:11:04.270Z,35.27
2023-05-20T09:13:34.032Z,35.58
2023-05-20T09:16:03.510Z,36.06
2023-05-20T09:18:32.156Z,34.91
2023-05-20T09:21:06.833Z,34.59
2023-05-20T09:23:37.968Z,34.87
2023-05-20T09:26:07.668Z,34.41
2023-05-20T09:28:38.320Z,36.17
2023-05-20T09:31:07.191Z,36.06
2023-05-20T09:33:35.707Z,35.92
2023-05-20T09:36:05.481Z,32.66
2023-05-20T09:38:37.920Z,33.94
2023-05-20T09:41:09.325Z,35.28
2023-05-20T09:43:37.833Z,34.02
2023-05-20T09:46:06.606Z,32.52
2023-05-20T09:48:37.262Z,32.45
2023-05-20T09:51:06.878Z,33.96
2023-05-20T09:53:35.540Z,33.23
2023-05-20T09:56:04.194Z,33.37
2023-05-20T09:58:35.331Z,33.88
2023-05-20T10:01:03.733Z,32.83
2023-05-20T10:03:33.566Z,33.52
2023-05-20T10:06:13.679Z,33.47
2023-05-20T10:08:56.977Z,31.75
2023-05-20T10:11:29.365Z,33.26
2023-05-20T10:14:13.467Z,32.43
2023-05-20T10:16:47.737Z,32.77
2023-05-20T10:19:26.695Z,31.55
2023-05-20T10:21:59.088Z,31.80
2023-05-20T10:24:34.852Z,30.28
2023-05-20T10:27:05.621Z,30.26
2023-05-20T10:29:45.071Z,31.53
2023-05-20T10:32:13.503Z,32.92
2023-05-20T10:34:48.663Z,32.07
2023-05-20T10:37:25.897Z,32.14
2023-05-20T10:39:54.397Z,32.48
2023-05-20T10:42:29.836Z,33.07
2023-05-20T10:44:59.514Z,33.24
2023-05-20T10:47:27.827Z,32.71
2023-05-20T10:49:56.242Z,32.96
2023-05-20T10:52:25.219Z,31.87
2023-05-20T10:54:56.990Z,33.26
2023-05-20T10:57:26.968Z,33.26
2023-05-20T10:59:55.985Z,32.63
2023-05-20T11:02:27.191Z,32.62
2023-05-20T11:04:58.130Z,31.54
2023-05-20T11:07:28.109Z,31.52
2023-05-20T11:09:56.442Z,31.60
2023-05-20T11:12:25.558Z,31.51
2023-05-20T11:14:54.195Z,31.47
2023-05-20T11:17:22.777Z,30.82
2023-05-20T11:19:52.454Z,32.66
2023-05-20T11:22:20.708Z,32.72
2023-05-20T11:24:49.017Z,33.40
2023-05-20T11:27:17.293Z,34.08
2023-05-20T11:29:45.631Z,32.13
2023-05-20T11:32:14.154Z,30.47
2023-05-20T11:34:42.728Z,32.67
2023-05-20T11:37:12.689Z,31.09
2023-05-20T11:39:40.962Z,31.06
2023-05-20T11:42:09.313Z,31.65
2023-05-20T11:44:38.553Z,31.10
2023-05-20T11:47:07.702Z,31.91
2023-05-20T11:49:40.999Z,31.67
2023-05-20T11:52:12.571Z,31.18
2023-05-20T11:54:40.997Z,31.06
2023-05-20T11:57:09.371Z,30.68
2023-05-20T11:59:37.761Z,31.41
2023-05-20T12:02:06.520Z,30.64
2023-05-20T12:04:34.820Z,30.54
2023-05-20T12:07:04.115Z,30.43
2023-05-20T12:09:33.779Z,30.56
2023-05-20T12:12:02.765Z,30.58
2023-05-20T12:14:31.151Z,31.50
2023-05-20T12:16:59.882Z,30.20
2023-05-20T12:19:28.339Z,30.67
2023-05-20T12:21:56.749Z,30.36
2023-05-20T12:24:25.008Z,30.09
2023-05-20T12:26:54.659Z,30.38
2023-05-20T12:29:22.930Z,29.82
2023-05-20T12:31:51.261Z,29.42
2023-05-20T12:34:19.671Z,29.73
2023-05-20T12:36:48.458Z,29.71
2023-05-20T12:39:17.836Z,29.71
2023-05-20T12:41:46.499Z,29.55
2023-05-20T12:44:16.186Z,29.40
2023-05-20T12:46:44.503Z,30.04
2023-05-20T12:49:12.856Z,29.44
2023-05-20T12:51:41.136Z,29.44
2023-05-20T12:54:09.403Z,29.90
2023-05-20T12:56:37.726Z,31.53
2023-05-20T12:59:05.984Z,29.06
2023-05-20T13:01:36.040Z,28.68
2023-05-20T13:04:04.492Z,29.96
2023-05-20T13:06:32.944Z,29.04
2023-05-20T13:09:01.244Z,29.04
2023-05-20T13:11:29.557Z,30.29
2023-05-20T13:13:58.072Z,29.58
2023-05-20T13:16:26.824Z,30.02
2023-05-20T13:18:56.730Z,29.76
2023-05-20T13:21:25.078Z,29.13
2023-05-20T13:23:53.384Z,28.92
2023-05-20T13:26:21.929Z,29.10
2023-05-20T13:28:50.235Z,29.12
2023-05-20T13:31:18.672Z,28.61
2023-05-20T13:33:46.965Z,28.18
2023-05-20T13:36:16.665Z,28.38
2023-05-20T13:38:44.972Z,29.02
2023-05-20T13:41:13.281Z,28.46
2023-05-20T13:43:42.232Z,28.75
2023-05-20T13:46:10.738Z,27.94
2023-05-20T13:48:39.189Z,28.25
2023-05-20T13:51:07.529Z,28.69
2023-05-20T13:53:37.195Z,29.16
2023-05-20T13:56:05.779Z,29.17
2023-05-20T13:58:34.114Z,29.72
2023-05-20T14:01:02.428Z,29.56
2023-05-20T14:03:31.077Z,30.49
2023-05-20T14:05:59.542Z,30.42
2023-05-20T14:08:27.883Z,30.23
2023-05-20T14:10:57.535Z,28.90
2023-05-20T14:13:26.103Z,30.11
2023-05-20T14:15:55.670Z,29.59
2023-05-20T14:18:23.991Z,29.54
2023-05-20T14:20:52.375Z,30.25
2023-05-20T14:23:21.426Z,29.88
2023-05-20T14:25:49.731Z,30.23
2023-05-20T14:28:19.388Z,30.37
2023-05-20T14:30:47.663Z,30.15
2023-05-20T14:33:16.040Z,28.80
2023-05-20T14:35:44.494Z,29.50
2023-05-20T14:38:12.837Z,28.94
2023-05-20T14:40:41.123Z,30.19
2023-05-20T14:43:09.564Z,29.15
2023-05-20T14:45:39.290Z,30.24
2023-05-20T14:48:08.036Z,29.47
2023-05-20T14:50:36.607Z,30.29
2023-05-20T14:53:05.613Z,29.53
2023-05-20T14:55:33.883Z,30.23
2023-05-20T14:58:02.182Z,29.79
2023-05-20T15:00:30.597Z,29.90
2023-05-20T15:03:00.361Z,29.43
2023-05-20T15:05:28.775Z,29.07
2023-05-20T15:07:57.332Z,30.07
2023-05-20T15:10:25.787Z,29.30
2023-05-20T15:12:54.055Z,31.03
2023-05-20T15:15:22.489Z,30.47
2023-05-20T15:17:50.950Z,29.96
2023-05-20T15:20:20.602Z,30.82
2023-05-20T15:22:48.883Z,29.78
2023-05-20T15:25:17.444Z,30.98
2023-05-20T15:27:45.720Z,30.51
2023-05-20T15:30:15.145Z,30.34
2023-05-20T15:32:43.759Z,30.40
2023-05-20T15:35:12.181Z,31.21
2023-05-20T15:37:42.200Z,30.58
2023-05-20T15:40:11.628Z,30.99
2023-05-20T15:42:39.949Z,30.04
2023-05-20T15:45:09.174Z,28.88
2023-05-20T15:47:39.876Z,30.30
2023-05-20T15:50:11.163Z,29.21
2023-05-20T15:52:40.929Z,29.68
2023-05-20T15:55:10.868Z,29.89
2023-05-20T15:57:39.216Z,29.98
2023-05-20T16:00:10.498Z,30.71
2023-05-20T16:02:40.361Z,30.97
2023-05-20T16:05:09.235Z,31.96
2023-05-20T16:07:37.574Z,31.74
2023-05-20T16:10:08.555Z,30.53
2023-05-20T16:12:36.892Z,30.97
2023-05-20T16:15:05.828Z,31.76
2023-05-20T16:17:34.137Z,30.59
2023-05-20T16:20:02.511Z,30.49
2023-05-20T16:22:30.808Z,30.71
2023-05-20T16:24:59.074Z,30.62
2023-05-20T16:27:30.052Z,31.34
2023-05-20T16:29:58.374Z,31.57
2023-05-20T16:32:27.137Z,30.47
2023-05-20T16:34:55.681Z,31.43
2023-05-20T16:37:23.917Z,31.57
2023-05-20T16:39:52.150Z,32.05
2023-05-20T16:42:20.411Z,31.64
2023-05-20T16:44:51.528Z,32.61
2023-05-20T16:47:19.910Z,32.40
2023-05-20T16:49:48.161Z,33.21
2023-05-20T16:52:16.545Z,32.68
2023-05-20T16:54:44.998Z,31.93
2023-05-20T16:57:15.912Z,32.66
2023-05-20T16:59:44.185Z,33.38
2023-05-20T17:02:13.821Z,33.65
2023-05-20T17:04:42.199Z,32.71
2023-05-20T17:07:11.394Z,32.95
2023-05-20T17:09:39.668Z,34.61
2023-05-20T17:12:08.552Z,34.00
2023-05-20T17:14:37.034Z,33.33
2023-05-20T17:17:06.025Z,33.80
2023-05-20T17:19:35.879Z,35.80
2023-05-20T17:22:04.157Z,34.81
2023-05-20T17:24:33.083Z,35.97
2023-05-20T17:27:01.964Z,35.65
2023-05-20T17:29:30.296Z,35.59
2023-05-20T17:31:58.605Z,35.19
2023-05-20T17:34:26.861Z,35.04
2023-05-20T17:36:57.177Z,35.54
2023-05-20T17:39:25.285Z,35.96
2023-05-20T17:41:53.450Z,36.68
2023-05-20T17:44:21.695Z,36.24
2023-05-20T17:46:49.991Z,37.89
2023-05-20T17:49:18.420Z,38.35
2023-05-20T17:51:46.738Z,38.38
2023-05-20T17:54:16.384Z,38.27
2023-05-20T17:56:47.616Z,38.73
2023-05-20T17:59:15.951Z,38.27
2023-05-20T18:01:44.786Z,38.64
2023-05-20T18:04:13.271Z,38.20
2023-05-20T18:06:41.739Z,38.88
2023-05-20T18:09:10.328Z,39.09
2023-05-20T18:11:40.082Z,39.13
2023-05-20T18:14:08.357Z,38.65
2023-05-20T18:16:36.713Z,39.97
2023-05-20T18:19:05.262Z,39.96
2023-05-20T18:21:33.582Z,39.83
2023-05-20T18:24:01.906Z,38.86
2023-05-20T18:26:30.223Z,42.37
2023-05-20T18:28:59.913Z,41.06
2023-05-20T18:31:28.231Z,41.88
2023-05-20T18:33:56.518Z,42.53
2023-05-20T18:36:25.018Z,42.73
2023-05-20T18:38:53.293Z,42.74
2023-05-20T18:41:23.599Z,45.14
2023-05-20T18:43:55.340Z,42.33
2023-05-20T18:46:25.039Z,43.09
2023-05-20T18:48:53.342Z,45.00
2023-05-20T18:51:21.637Z,47.89
2023-05-20T18:53:49.931Z,43.81
2023-05-20T18:56:18.323Z,44.83
2023-05-20T18:58:46.847Z,46.11
2023-05-20T19:01:15.223Z,45.67
2023-05-20T19:03:45.079Z,45.80
2023-05-20T19:06:13.935Z,48.61
2023-05-20T19:08:42.205Z,48.66
2023-05-20T19:11:10.591Z,46.95
2023-05-20T19:13:38.876Z,47.08
2023-05-20T19:16:07.601Z,51.68
2023-05-20T19:18:35.929Z,49.10
2023-05-20T19:21:05.958Z,52.71
2023-05-20T19:23:34.307Z,48.18
2023-05-20T19:26:02.637Z,47.60
2023-05-20T19:28:30.935Z,50.36
2023-05-20T19:30:59.255Z,50.72
2023-05-20T19:33:27.569Z,46.98
2023-05-20T19:35:57.716Z,50.03
2023-05-20T19:38:27.392Z,52.52
2023-05-20T19:40:55.701Z,52.24
2023-05-20T19:43:24.281Z,50.63
2023-05-20T19:45:52.683Z,52.56
2023-05-20T19:48:22.444Z,50.16
2023-05-20T19:50:50.854Z,50.60
2023-05-20T19:53:20.885Z,52.93
2023-05-20T19:55:50.691Z,49.92
2023-05-20T19:58:18.982Z,47.25
2023-05-20T20:00:47.276Z,49.49
2023-05-20T20:03:15.678Z,49.46
2023-05-20T20:05:44.106Z,50.29
2023-05-20T20:08:12.473Z,48.79
2023-05-20T20:10:40.833Z,49.79
2023-05-20T20:13:10.541Z,51.88
2023-05-20T20:15:40.094Z,51.24
2023-05-20T20:18:08.423Z,49.64
2023-05-20T20:20:40.079Z,51.26
2023-05-20T20:23:08.926Z,49.00
2023-05-20T20:25:38.717Z,52.10
2023-05-20T20:28:07.215Z,52.09
2023-05-20T20:30:37.289Z,54.53
2023-05-20T20:33:07.139Z,52.46
2023-05-20T20:35:36.186Z,50.35
2023-05-20T20:38:08.851Z,51.76
2023-05-20T20:40:41.601Z,50.25
2023-05-20T20:43:10.904Z,52.28
2023-05-20T20:45:40.664Z,49.86
2023-05-20T20:48:09.075Z,50.74
2023-05-20T20:50:37.522Z,50.01
2023-05-20T20:53:05.879Z,51.16
2023-05-20T20:55:34.412Z,52.92
2023-05-20T20:58:04.794Z,49.69
2023-05-20T21:00:33.848Z,48.43
2023-05-20T21:03:03.685Z,50.67
2023-05-20T21:05:31.932Z,53.69
2023-05-20T21:08:03.194Z,51.74
2023-05-20T21:10:31.617Z,52.11
2023-05-20T21:13:00.302Z,52.74
2023-05-20T21:15:28.608Z,49.01
2023-05-20T21:17:57.002Z,49.58
2023-05-20T21:20:26.821Z,50.50
2023-05-20T21:22:55.096Z,48.63
2023-05-20T21:25:23.364Z,49.02
2023-05-20T21:27:51.793Z,51.73
2023-05-20T21:30:20.168Z,49.99
2023-05-20T21:32:48.545Z,52.13
2023-05-20T21:35:17.044Z,49.19
2023-05-20T21:37:46.702Z,50.73
2023-05-20T21:40:15.058Z,49.58
2023-05-20T21:42:43.351Z,52.71
2023-05-20T21:45:12.179Z,52.10
2023-05-20T21:47:40.572Z,50.35
2023-05-20T21:50:09.723Z,50.45
2023-05-20T21:52:39.804Z,51.23
2023-05-20T21:55:10.950Z,51.30
2023-05-20T21:57:39.234Z,51.30
2023-05-20T22:00:14.226Z,51.12
2023-05-20T22:02:42.786Z,52.03
2023-05-20T22:05:11.869Z,55.09
2023-05-20T22:07:42.016Z,49.54
2023-05-20T22:10:12.707Z,47.56
2023-05-20T22:12:42.405Z,52.84
2023-05-20T22:15:11.707Z,52.30
2023-05-20T22:17:40.185Z,50.29
2023-05-20T22:20:10.666Z,49.43
2023-05-20T22:22:39.856Z,49.33
2023-05-20T22:25:08.740Z,50.14
2023-05-20T22:27:38.809Z,47.88
2023-05-20T22:30:08.621Z,49.20
2023-05-20T22:32:37.044Z,50.60
2023-05-20T22:35:05.915Z,48.80
2023-05-20T22:37:34.208Z,49.97
2023-05-20T22:40:02.515Z,50.89
2023-05-20T22:42:30.792Z,52.81
2023-05-20T22:45:00.561Z,49.50
2023-05-20T22:47:28.852Z,48.02
2023-05-20T22:49:57.551Z,49.97
2023-05-20T22:52:26.318Z,48.05
2023-05-20T22:54:54.630Z,50.27
2023-05-20T22:57:22.930Z,48.61
2023-05-20T22:59:52.013Z,48.50
2023-05-20T23:02:21.668Z,46.03
2023-05-20T23:04:50.148Z,47.83
2023-05-20T23:07:19.393Z,48.48
2023-05-20T23:09:48.567Z,47.77
2023-05-20T23:12:17.182Z,45.23
2023-05-20T23:14:45.697Z,47.65
2023-05-20T23:17:14.013Z,47.44
2023-05-20T23:19:43.764Z,47.91
2023-05-20T23:22:12.092Z,46.43
2023-05-20T23:24:40.412Z,47.12
2023-05-20T23:27:08.745Z,45.18
2023-05-20T23:29:37.074Z,45.04
2023-05-20T23:32:06.178Z,45.80
2023-05-20T23:34:35.167Z,45.04
2023-05-20T23:37:05.081Z,46.13
2023-05-20T23:39:33.390Z,46.90
2023-05-20T23:42:01.705Z,46.58
2023-05-20T23:44:29.999Z,46.34
2023-05-20T23:46:58.326Z,42.95
2023-05-20T23:49:27.240Z,42.54
2023-05-20T23:51:55.675Z,43.50
2023-05-20T23:54:25.346Z,42.85
2023-05-20T23:56:54.048Z,44.43
2023-05-20T23:59:22.325Z,45.73
